Cedar Creek, TX (78612)

1:37 PM CDT on May 28, 2017 (GMT -0500)
Hobbs Creek | | Change Station

Elev 460 ft 30.10 °N, 97.48 °W | Updated 12 seconds ago

Mostly Cloudy
Mostly Cloudy
93.4 °F
Feels Like 108 °F
N
7.0
Wind Variable Wind from SSW

Today
High -- | Low -- °F
--% Chance of Precip.
Yesterday
High -- | Low -- °F
Precip. -- in
Pressure 29.87 in
Visibility 10.0 miles
Clouds Mostly Cloudy 3500 ft
Mostly Cloudy 4500 ft
Overcast 25000 ft
Heat Index 108 °F
Dew Point 76 °F
Humidity 59%
Rainfall 0.00 in
Snow Depth Not available.
6:30 AM 8:24 PM
Waxing Crescent, 13% visible
METAR KAUS 281753Z 15008KT 10SM BKN035 BKN045 OVC250 32/23 A2990 RMK AO2 SLP114 T03220228 10328 20228 58002 $
Pressure 29.87 in
Visibility 10.0 miles
Clouds Mostly Cloudy 3500 ft
Mostly Cloudy 4500 ft
Overcast 25000 ft
Heat Index 108 °F
Dew Point 76 °F
Humidity 59%
Rainfall 0.00 in
Snow Depth Not available.
6:30 AM 8:24 PM
Waxing Crescent, 13% visible
METAR KAUS 281753Z 15008KT 10SM BKN035 BKN045 OVC250 32/23 A2990 RMK AO2 SLP114 T03220228 10328 20228 58002 $

Get Severe Weather Alerts

Thanks for signing up!

Be on the lookout for a verification email in your inbox.

You'll start receiving the daily forecast at 6 AM.

×

10-Day Weather Forecast

Almanac

Astronomy

May. 28, 2017 Rise Set
Actual Time
Civil Twilight
Nautical Twilight
Astronomical Twilight
Moon
Length of Visible Light
Length of Day
Tomorrow will be .
, % of the Moon is Illuminated

Today's Extremes

State Highs State Lows

Community

WunderPhotos

Category 6

Welcome to Category 6. This is the collective home for Weather Underground's featured writeups by Dr. Jeff Masters (right), Bob Henson (left), Chris Burt, and other regular contributors.

Nearby

Air Quality

  Air Quality AQ Index Pollutant
Not available.

Snow Depth

Station Depth Elevation

Earthquake Activity

City Distance Mag. Time & Date
Minimum magnitude displayed is 2.5.

Coastal Water Temperatures

Place Temperature

Stations

Nearby Weather Stations

Station Location Temp. Windchill Dew Point Humidity Wind Precip. Elev Updated Type
                   

Watches & Warnings

There are currently no watches in effect.